createdAt,value
2018-11-27T00:02:01.039Z,4.64
2018-11-27T00:05:08.000Z,4.63
2018-11-27T00:08:14.123Z,4.71
2018-11-27T00:11:19.546Z,4.78
2018-11-27T00:14:25.287Z,4.76
2018-11-27T00:17:31.048Z,4.71
2018-11-27T00:20:36.572Z,4.60
2018-11-27T00:23:42.573Z,4.46
2018-11-27T00:26:47.975Z,4.46
2018-11-27T00:29:53.257Z,4.43
2018-11-27T00:32:58.660Z,4.56
2018-11-27T00:36:04.062Z,4.43
2018-11-27T00:39:11.382Z,4.46
2018-11-27T00:42:16.905Z,4.53
2018-11-27T00:45:22.187Z,4.59
2018-11-27T00:48:27.591Z,4.61
2018-11-27T00:51:33.110Z,4.63
2018-11-27T00:54:38.633Z,4.66
2018-11-27T00:57:45.114Z,4.69
2018-11-27T01:00:50.519Z,4.71
2018-11-27T01:03:55.920Z,4.69
2018-11-27T01:07:01.442Z,4.72
2018-11-27T01:10:10.686Z,4.71
2018-11-27T01:13:16.085Z,4.61
2018-11-27T01:16:23.527Z,4.67
2018-11-27T01:19:29.051Z,4.58
2018-11-27T01:22:34.450Z,4.58
2018-11-27T01:25:39.734Z,4.59
2018-11-27T01:28:45.135Z,4.62
2018-11-27T01:31:50.417Z,4.64
2018-11-27T01:34:55.820Z,4.67
2018-11-27T01:38:01.347Z,4.64
2018-11-27T01:41:06.864Z,4.44
2018-11-27T01:44:12.265Z,4.34
2018-11-27T01:47:17.547Z,4.41
2018-11-27T01:50:22.950Z,4.40
2018-11-27T01:53:28.352Z,4.43
2018-11-27T01:56:33.754Z,4.45
2018-11-27T01:59:39.156Z,4.51
2018-11-27T02:02:44.678Z,4.54
2018-11-27T02:05:49.961Z,4.57
2018-11-27T02:08:55.603Z,4.59
2018-11-27T02:12:01.010Z,4.54
2018-11-27T02:15:09.166Z,4.58
2018-11-27T02:18:14.569Z,4.58
2018-11-27T02:21:19.974Z,4.48
2018-11-27T02:24:25.373Z,4.51
2018-11-27T02:27:31.374Z,4.57
2018-11-27T02:30:36.897Z,4.61
2018-11-27T02:33:42.301Z,4.62
2018-11-27T02:36:47.942Z,4.57
2018-11-27T02:40:01.510Z,4.56
2018-11-27T02:43:06.908Z,4.45
2018-11-27T02:46:12.313Z,4.39
2018-11-27T02:49:17.710Z,4.46
2018-11-27T02:52:23.233Z,4.35
2018-11-27T02:55:28.638Z,4.40
2018-11-27T02:58:34.160Z,4.50
2018-11-27T03:01:39.798Z,4.52
2018-11-27T03:04:45.200Z,4.53
2018-11-27T03:07:50.723Z,4.56
2018-11-27T03:10:56.243Z,4.59
2018-11-27T03:14:01.647Z,4.59
2018-11-27T03:17:06.928Z,4.55
2018-11-27T03:20:13.770Z,4.54
2018-11-27T03:23:19.293Z,4.42
2018-11-27T03:26:24.694Z,4.48
2018-11-27T03:29:30.096Z,4.46
2018-11-27T03:32:35.620Z,4.45
2018-11-27T03:35:41.022Z,4.44
2018-11-27T03:38:46.547Z,4.37
2018-11-27T03:41:51.824Z,4.36
2018-11-27T03:44:57.347Z,4.38
2018-11-27T03:48:02.868Z,4.35
2018-11-27T03:51:08.272Z,4.37
2018-11-27T03:54:13.675Z,4.37
2018-11-27T03:57:18.955Z,4.38
2018-11-27T04:00:27.852Z,4.41
2018-11-27T04:03:33.241Z,4.42
2018-11-27T04:06:38.641Z,4.38
2018-11-27T04:09:44.044Z,4.42
2018-11-27T04:12:49.445Z,4.43
2018-11-27T04:15:54.848Z,4.45
2018-11-27T04:19:00.250Z,4.46
2018-11-27T04:22:06.013Z,4.47
2018-11-27T04:25:13.574Z,4.38
2018-11-27T04:28:18.857Z,4.42
2018-11-27T04:31:24.260Z,4.47
2018-11-27T04:34:29.780Z,4.48
2018-11-27T04:37:35.422Z,4.36
2018-11-27T04:40:41.064Z,4.36
2018-11-27T04:43:46.586Z,4.19
2018-11-27T04:46:51.989Z,4.26
2018-11-27T04:49:57.271Z,4.32
2018-11-27T04:53:02.795Z,4.33
2018-11-27T04:56:08.555Z,4.34
2018-11-27T04:59:14.078Z,4.34
2018-11-27T05:02:19.482Z,4.33
2018-11-27T05:05:24.895Z,4.33
2018-11-27T05:08:30.523Z,4.35
2018-11-27T05:11:35.924Z,4.36
2018-11-27T05:14:41.211Z,4.36
2018-11-27T05:17:48.345Z,4.35
2018-11-27T05:20:53.331Z,4.31
2018-11-27T05:23:58.732Z,4.30
2018-11-27T05:27:04.135Z,4.28
2018-11-27T05:30:15.186Z,4.25
2018-11-27T05:33:20.581Z,4.28
2018-11-27T05:36:25.980Z,4.29
2018-11-27T05:39:31.383Z,4.30
2018-11-27T05:42:36.785Z,4.29
2018-11-27T05:45:42.187Z,4.30
2018-11-27T05:48:47.710Z,4.30
2018-11-27T05:51:53.237Z,4.27
2018-11-27T05:54:58.635Z,4.27
2018-11-27T05:58:04.155Z,4.22
2018-11-27T06:01:09.557Z,4.22
2018-11-27T06:04:14.959Z,4.22
2018-11-27T06:07:20.360Z,4.19
2018-11-27T06:10:25.765Z,4.22
2018-11-27T06:13:31.165Z,4.15
2018-11-27T06:16:36.566Z,4.18
2018-11-27T06:19:41.849Z,4.18
2018-11-27T06:22:47.252Z,4.14
2018-11-27T06:25:52.894Z,4.19
2018-11-27T06:28:59.016Z,4.19
2018-11-27T06:32:04.658Z,4.17
2018-11-27T06:35:11.739Z,4.16
2018-11-27T06:38:17.501Z,4.20
2018-11-27T06:41:23.024Z,4.19
2018-11-27T06:44:28.547Z,4.15
2018-11-27T06:47:34.067Z,4.18
2018-11-27T06:50:39.478Z,4.19
2018-11-27T06:53:45.113Z,4.20
2018-11-27T06:56:50.536Z,4.23
2018-11-27T06:59:56.037Z,4.24
2018-11-27T07:03:01.798Z,4.25
2018-11-27T07:06:07.575Z,4.23
2018-11-27T07:09:13.323Z,4.19
2018-11-27T07:12:40.085Z,4.25
2018-11-27T07:15:46.930Z,4.28
2018-11-27T07:19:00.131Z,4.30
2018-11-27T07:22:05.891Z,4.32
2018-11-27T07:25:12.978Z,4.34
2018-11-27T07:28:18.495Z,4.29
2018-11-27T07:31:24.020Z,4.31
2018-11-27T07:34:29.420Z,4.23
2018-11-27T07:37:34.823Z,4.29
2018-11-27T07:40:40.227Z,4.37
2018-11-27T07:43:45.625Z,4.42
2018-11-27T07:46:51.026Z,4.42
2018-11-27T07:49:56.549Z,4.46
2018-11-27T07:53:02.192Z,4.49
2018-11-27T07:56:07.477Z,4.57
2018-11-27T07:59:12.875Z,4.66
2018-11-27T08:02:18.278Z,4.68
2018-11-27T08:05:27.161Z,4.74
2018-11-27T08:08:32.563Z,4.81
2018-11-27T08:11:38.084Z,4.89
2018-11-27T08:14:43.485Z,4.82
2018-11-27T08:17:49.015Z,4.76
2018-11-27T08:20:54.294Z,4.71
2018-11-27T08:23:59.811Z,4.79
2018-11-27T08:27:05.334Z,4.92
2018-11-27T08:30:13.257Z,5.00
2018-11-27T08:33:18.657Z,5.09
2018-11-27T08:36:24.180Z,5.19
2018-11-27T08:39:29.957Z,5.29
2018-11-27T08:42:35.344Z,5.32
2018-11-27T08:45:41.106Z,5.28
2018-11-27T08:48:46.867Z,5.25
2018-11-27T08:51:52.270Z,5.25
2018-11-27T08:54:57.792Z,5.32
2018-11-27T08:58:05.411Z,5.34
2018-11-27T09:01:10.997Z,5.35
2018-11-27T09:04:16.638Z,5.36
2018-11-27T09:07:22.891Z,5.37
2018-11-27T09:10:28.283Z,5.30
2018-11-27T09:13:33.686Z,5.24
2018-11-27T09:16:39.449Z,5.32
2018-11-27T09:19:45.092Z,5.17
2018-11-27T09:22:50.764Z,5.19
2018-11-27T09:25:56.373Z,5.23
2018-11-27T09:29:01.895Z,5.18
2018-11-27T09:32:15.221Z,5.23
2018-11-27T09:35:21.701Z,5.31
2018-11-27T09:38:27.227Z,5.35
2018-11-27T09:41:32.868Z,5.38
2018-11-27T09:44:38.267Z,5.38
2018-11-27T09:47:52.792Z,5.42
2018-11-27T09:50:58.560Z,5.36
2018-11-27T09:54:04.202Z,5.37
2018-11-27T09:57:10.318Z,5.19
2018-11-27T10:00:21.120Z,5.12
2018-11-27T10:03:27.002Z,5.11
2018-11-27T10:06:40.201Z,5.15
2018-11-27T10:09:45.856Z,4.95
2018-11-27T10:12:51.973Z,4.77
2018-11-27T10:15:57.492Z,4.77
2018-11-27T10:19:03.015Z,4.85
2018-11-27T10:22:16.458Z,5.02
2018-11-27T10:25:21.871Z,5.01
2018-11-27T10:28:31.948Z,4.97
2018-11-27T10:31:33.259Z,4.98
2018-11-27T10:34:42.986Z,4.80
2018-11-27T10:37:48.506Z,4.59
2018-11-27T10:40:54.748Z,4.74
2018-11-27T10:44:00.511Z,4.95
2018-11-27T10:47:06.150Z,5.15
2018-11-27T10:50:12.872Z,5.06
2018-11-27T10:53:32.677Z,5.06
2018-11-27T10:56:46.603Z,5.13
2018-11-27T10:59:51.998Z,5.05
2018-11-27T11:03:01.963Z,5.08
2018-11-27T11:06:08.324Z,5.18
2018-11-27T11:09:13.967Z,5.23
2018-11-27T11:12:20.330Z,5.30
2018-11-27T11:15:26.329Z,5.38
2018-11-27T11:18:31.854Z,5.26
2018-11-27T11:21:37.497Z,5.25
2018-11-27T11:24:43.135Z,5.20
2018-11-27T11:27:50.696Z,5.16
2018-11-27T11:30:56.462Z,5.03
2018-11-27T11:34:02.223Z,4.83
2018-11-27T11:37:07.989Z,4.90
2018-11-27T11:40:14.827Z,5.00
2018-11-27T11:43:20.234Z,5.11
2018-11-27T11:46:33.441Z,5.22
2018-11-27T11:49:39.311Z,5.24
2018-11-27T11:52:47.599Z,5.34
2018-11-27T11:55:54.435Z,5.30
2018-11-27T11:59:00.084Z,5.36
2018-11-27T12:02:05.843Z,5.16
2018-11-27T12:05:11.722Z,5.21
2018-11-27T12:08:17.608Z,5.35
2018-11-27T12:11:45.696Z,5.42
2018-11-27T12:14:52.408Z,5.40
2018-11-27T12:17:58.171Z,5.49
2018-11-27T12:21:04.052Z,5.48
2018-11-27T12:24:09.938Z,5.63
2018-11-27T12:27:15.580Z,5.79
2018-11-27T12:30:26.507Z,5.90
2018-11-27T12:33:32.861Z,5.95
2018-11-27T12:36:38.511Z,5.85
2018-11-27T12:39:44.389Z,5.84
2018-11-27T12:42:50.392Z,5.87
2018-11-27T12:45:56.151Z,5.89
2018-11-27T12:49:01.912Z,5.95
2018-11-27T12:52:15.361Z,5.88
2018-11-27T12:55:22.326Z,5.72
2018-11-27T13:02:03.724Z,5.04
2018-11-27T13:05:38.522Z,5.07
2018-11-27T13:08:44.767Z,4.87
2018-11-27T13:11:50.527Z,4.89
2018-11-27T13:14:56.416Z,4.96
2018-11-27T13:18:04.453Z,5.10
2018-11-27T13:21:10.334Z,5.08
2018-11-27T13:24:18.016Z,5.24
2018-11-27T13:27:32.178Z,5.40
2018-11-27T13:30:59.910Z,5.35
2018-11-27T13:34:10.400Z,5.31
2018-11-27T13:37:17.790Z,5.36
2018-11-27T13:40:23.305Z,5.32
2018-11-27T13:43:36.514Z,5.37
2018-11-27T13:46:42.510Z,5.41
2018-11-27T13:49:59.316Z,5.33
2018-11-27T13:53:05.320Z,5.38
2018-11-27T13:56:10.716Z,5.48
2018-11-27T13:59:16.252Z,5.41
2018-11-27T14:02:21.761Z,5.49
2018-11-27T14:05:27.402Z,5.35
2018-11-27T14:08:33.410Z,5.28
2018-11-27T14:11:38.931Z,5.48
2018-11-27T14:14:45.784Z,5.60
2018-11-27T14:17:52.379Z,5.66
2018-11-27T14:20:57.893Z,5.61
2018-11-27T14:24:03.299Z,5.60
2018-11-27T14:27:09.177Z,5.47
2018-11-27T14:30:16.141Z,5.32
2018-11-27T14:33:21.901Z,5.40
2018-11-27T14:36:27.423Z,5.47
2018-11-27T14:39:32.829Z,5.51
2018-11-27T14:42:38.466Z,5.50
2018-11-27T14:45:43.869Z,5.31
2018-11-27T14:48:49.634Z,5.11
2018-11-27T14:52:23.595Z,4.81
2018-11-27T14:55:30.557Z,4.87
2018-11-27T14:58:36.198Z,5.02
2018-11-27T15:01:44.005Z,5.14
2018-11-27T15:04:51.568Z,5.03
2018-11-27T15:07:56.965Z,5.00
2018-11-27T15:11:12.792Z,4.95
2018-11-27T15:14:16.649Z,4.98
2018-11-27T15:17:22.541Z,4.99
2018-11-27T15:20:28.060Z,4.98
2018-11-27T15:23:33.485Z,4.97
2018-11-27T15:26:51.702Z,5.01
2018-11-27T15:29:57.222Z,4.80
2018-11-27T15:33:02.501Z,4.67
2018-11-27T15:39:20.271Z,4.69
2018-11-27T15:42:26.036Z,4.64
2018-11-27T15:45:33.111Z,4.66
2018-11-27T15:48:38.632Z,4.73
2018-11-27T15:51:44.517Z,4.75
2018-11-27T15:54:50.402Z,4.71
2018-11-27T15:58:11.281Z,4.68
2018-11-27T16:01:16.805Z,4.65
2018-11-27T16:04:22.207Z,4.69
2018-11-27T16:07:27.727Z,4.72
2018-11-27T16:10:39.852Z,4.74
2018-11-27T16:13:49.065Z,4.76
2018-11-27T16:16:51.132Z,4.73
2018-11-27T16:19:56.900Z,4.77
2018-11-27T16:23:02.535Z,4.82
2018-11-27T16:26:08.178Z,4.76
2018-11-27T16:29:13.943Z,4.59
2018-11-27T16:32:19.580Z,4.41
2018-11-27T16:35:24.985Z,4.36
2018-11-27T16:38:40.243Z,4.23
2018-11-27T16:41:48.031Z,4.32
2018-11-27T16:44:53.679Z,4.44
2018-11-27T16:47:59.314Z,4.41
2018-11-27T16:51:05.250Z,4.39
2018-11-27T16:54:17.813Z,4.45
2018-11-27T16:57:23.198Z,4.33
2018-11-27T17:00:30.643Z,4.39
2018-11-27T17:03:36.285Z,4.41
2018-11-27T17:06:41.927Z,4.45
2018-11-27T17:09:47.447Z,4.46
2018-11-27T17:12:54.170Z,4.50
2018-11-27T17:15:59.697Z,4.57
2018-11-27T17:19:05.577Z,4.53
2018-11-27T17:22:11.336Z,4.49
2018-11-27T17:25:16.858Z,4.51
2018-11-27T17:28:27.421Z,4.49
2018-11-27T17:31:32.943Z,4.43
2018-11-27T17:34:38.348Z,4.36
2018-11-27T17:37:43.986Z,4.16
2018-11-27T17:40:49.628Z,3.94
2018-11-27T17:43:56.830Z,3.94
2018-11-27T17:47:02.591Z,3.99
2018-11-27T17:50:10.887Z,3.93
2018-11-27T17:53:16.639Z,3.97
2018-11-27T17:56:22.518Z,4.05
2018-11-27T17:59:28.208Z,4.14
2018-11-27T18:02:33.926Z,4.20
2018-11-27T18:05:39.809Z,4.16
2018-11-27T18:08:45.456Z,4.16
2018-11-27T18:11:54.929Z,4.14
2018-11-27T18:15:10.177Z,4.13
2018-11-27T18:18:15.572Z,3.91
2018-11-27T18:21:21.579Z,3.87
2018-11-27T18:24:27.217Z,3.83
2018-11-27T18:27:32.860Z,3.78
2018-11-27T18:30:38.740Z,3.85
2018-11-27T18:33:45.704Z,3.96
2018-11-27T18:36:51.588Z,4.01
2018-11-27T18:39:57.592Z,3.88
2018-11-27T18:43:03.231Z,3.86
2018-11-27T18:46:09.108Z,3.96
2018-11-27T18:49:14.395Z,4.07
2018-11-27T18:52:20.394Z,4.07
2018-11-27T18:55:26.759Z,4.13
2018-11-27T18:58:32.471Z,4.02
2018-11-27T19:01:37.924Z,3.91
2018-11-27T19:04:43.567Z,3.88
2018-11-27T19:07:49.327Z,3.76
2018-11-27T19:10:55.208Z,3.67
2018-11-27T19:14:00.740Z,3.67
2018-11-27T19:17:06.610Z,3.78
2018-11-27T19:20:13.093Z,3.85
2018-11-27T19:23:20.779Z,3.94
2018-11-27T19:26:26.422Z,4.00
2018-11-27T19:29:32.303Z,3.95
2018-11-27T19:32:38.061Z,3.77
2018-11-27T19:35:43.827Z,3.64
2018-11-27T19:38:49.949Z,3.53
2018-11-27T19:41:55.712Z,3.54
2018-11-27T19:45:01.356Z,3.63
2018-11-27T19:48:08.076Z,3.69
2018-11-27T19:51:13.598Z,3.70
2018-11-27T19:54:19.481Z,3.57
2018-11-27T19:57:32.804Z,3.63
2018-11-27T20:00:41.679Z,3.57
2018-11-27T20:03:47.202Z,3.45
2018-11-27T20:06:57.166Z,3.41
2018-11-27T20:10:02.811Z,3.44
2018-11-27T20:13:08.208Z,3.43
2018-11-27T20:16:13.612Z,3.19
2018-11-27T20:19:19.614Z,3.22
2018-11-27T20:22:25.136Z,3.26
2018-11-27T20:25:30.778Z,3.05
2018-11-27T20:28:36.539Z,3.08
2018-11-27T20:31:42.062Z,3.21
2018-11-27T20:34:47.584Z,3.35
2018-11-27T20:37:53.944Z,3.34
2018-11-27T20:40:59.231Z,3.35
2018-11-27T20:44:05.108Z,3.34
2018-11-27T20:47:10.393Z,3.32
2018-11-27T20:50:22.873Z,3.37
2018-11-27T20:53:28.274Z,3.40
2018-11-27T20:56:33.556Z,3.37
2018-11-27T20:59:38.959Z,3.18
2018-11-27T21:02:44.578Z,3.30
2018-11-27T21:05:49.895Z,3.40
2018-11-27T21:08:55.284Z,3.47
2018-11-27T21:12:00.567Z,3.49
2018-11-27T21:15:09.089Z,3.41
2018-11-27T21:18:14.492Z,3.36
2018-11-27T21:21:19.773Z,3.34
2018-11-27T21:24:25.295Z,3.32
2018-11-27T21:27:30.577Z,3.35
2018-11-27T21:30:36.219Z,3.39
2018-11-27T21:33:41.980Z,3.36
2018-11-27T21:36:47.504Z,3.34
2018-11-27T21:39:52.904Z,3.36
2018-11-27T21:42:58.186Z,3.33
2018-11-27T21:46:04.188Z,3.37
2018-11-27T21:49:09.710Z,3.45
2018-11-27T21:52:14.992Z,3.39
2018-11-27T21:55:20.394Z,3.33
2018-11-27T21:58:25.795Z,3.36
2018-11-27T22:01:31.198Z,3.42
2018-11-27T22:04:36.601Z,3.52
2018-11-27T22:07:42.364Z,3.50
2018-11-27T22:10:47.765Z,3.38
2018-11-27T22:13:53.285Z,3.35
2018-11-27T22:16:58.691Z,3.35
2018-11-27T22:20:05.530Z,3.30
2018-11-27T22:23:11.052Z,3.28
2018-11-27T22:26:16.454Z,3.26
2018-11-27T22:29:21.856Z,3.32
2018-11-27T22:32:27.257Z,3.36
2018-11-27T22:35:32.660Z,3.35
2018-11-27T22:38:37.941Z,3.39
2018-11-27T22:41:43.346Z,3.34
2018-11-27T22:44:48.747Z,3.35
2018-11-27T22:47:54.148Z,3.37
2018-11-27T22:50:59.550Z,3.36
2018-11-27T22:54:05.072Z,3.36
2018-11-27T22:57:10.603Z,3.51
2018-11-27T23:03:19.478Z,3.55
2018-11-27T23:06:24.880Z,3.58
2018-11-27T23:09:30.523Z,3.61
2018-11-27T23:12:35.924Z,3.61
2018-11-27T23:15:41.334Z,3.63
2018-11-27T23:18:46.608Z,3.66
2018-11-27T23:21:52.010Z,3.61
2018-11-27T23:24:57.413Z,3.59
2018-11-27T23:28:03.055Z,3.65
2018-11-27T23:31:08.458Z,3.62
2018-11-27T23:34:13.738Z,3.65
2018-11-27T23:37:19.141Z,3.64
2018-11-27T23:40:24.542Z,3.64
2018-11-27T23:43:29.828Z,3.66
2018-11-27T23:46:35.227Z,3.68
2018-11-27T23:49:40.748Z,3.61
2018-11-27T23:52:46.390Z,3.46
2018-11-27T23:55:51.792Z,3.44
2018-11-27T23:58:57.195Z,3.50
